Time;durP1;ratioP1;P1;durP2;ratioP2;P2;SDS_P1;SDS_P2;PMS_P1;PMS_P2;Temp;Humidity;BMP_temperature;BMP_pressure;BME280_temperature;BME280_humidity;BME280_pressure;Samples;Min_cycle;Max_cycle;Signal;HPM_P1;HPM_P2
2023/05/30 00:01:48;;;;;;;29.40;24.00;;;;;;;11.11;72.29;98050.27;107172;1277;25386;-80
2023/05/30 00:04:17;;;;;;;26.70;23.40;;;;;;;11.11;72.11;98052.65;107225;1277;23069;-80
2023/05/30 00:06:46;;;;;;;27.70;24.20;;;;;;;11.12;72.23;98055.02;107199;1277;23174;-79
2023/05/30 00:09:15;;;;;;;26.90;24.10;;;;;;;11.17;72.18;98053.52;107263;1256;25249;-81
2023/05/30 00:11:43;;;;;;;27.40;23.20;;;;;;;11.20;72.21;98051.42;107209;1277;24247;-81
2023/05/30 00:14:11;;;;;;;26.20;22.90;;;;;;;11.17;72.55;98049.15;107115;1277;24456;-81
2023/05/30 00:16:39;;;;;;;25.00;22.40;;;;;;;11.17;72.33;98046.50;106916;1277;24255;-82
2023/05/30 00:19:07;;;;;;;26.00;21.70;;;;;;;11.20;72.53;98052.00;107095;1277;23903;-82
2023/05/30 00:21:35;;;;;;;25.30;22.30;;;;;;;11.16;72.26;98041.89;107150;1277;22532;-83
2023/05/30 00:24:04;;;;;;;26.60;22.00;;;;;;;11.22;72.39;98048.30;106824;1277;22638;-82
2023/05/30 00:26:32;;;;;;;28.00;22.20;;;;;;;11.21;72.21;98046.42;107300;1277;22531;-81
2023/05/30 00:29:00;;;;;;;29.20;23.80;;;;;;;11.19;72.15;98045.92;107159;1277;22625;-81
2023/05/30 00:31:33;;;;;;;27.00;22.10;;;;;;;11.19;72.30;98046.79;107049;1277;22520;-82
2023/05/30 00:34:01;;;;;;;28.00;21.30;;;;;;;11.16;72.43;98047.38;107417;1277;22520;-83
2023/05/30 00:36:29;;;;;;;27.00;21.40;;;;;;;11.18;72.37;98046.65;107497;1277;23998;-82
2023/05/30 00:38:58;;;;;;;27.60;21.20;;;;;;;11.21;72.49;98043.95;107502;1277;22572;-83
2023/05/30 00:41:27;;;;;;;23.40;20.30;;;;;;;11.25;72.43;98044.41;107141;1277;22648;-81
2023/05/30 00:43:55;;;;;;;23.80;20.60;;;;;;;11.26;72.43;98045.57;107136;1277;22514;-82
2023/05/30 00:46:25;;;;;;;27.10;20.60;;;;;;;11.26;72.45;98041.15;107092;1277;22515;-83
2023/05/30 00:48:53;;;;;;;23.60;20.70;;;;;;;11.30;72.35;98040.63;106799;1277;25373;-81
2023/05/30 00:51:24;;;;;;;27.60;19.40;;;;;;;11.37;72.20;98036.46;106868;1277;22545;-82
2023/05/30 00:53:52;;;;;;;22.20;19.80;;;;;;;11.46;72.45;98038.92;107701;1266;22640;-83
2023/05/30 00:56:23;;;;;;;23.70;20.10;;;;;;;11.51;72.23;98038.02;107033;1277;25619;-80
2023/05/30 00:58:55;;;;;;;25.70;21.30;;;;;;;11.52;72.19;98043.23;106786;1277;22527;-81
2023/05/30 01:01:24;;;;;;;25.20;18.70;;;;;;;11.53;72.21;98042.45;106876;1253;25312;-82
2023/05/30 01:03:52;;;;;;;21.80;19.30;;;;;;;11.52;72.17;98046.05;106828;1277;22636;-83
2023/05/30 01:06:22;;;;;;;20.50;18.30;;;;;;;11.40;72.58;98046.27;106687;1277;22549;-82
2023/05/30 01:08:51;;;;;;;23.10;17.30;;;;;;;11.33;72.69;98043.93;106605;1277;22542;-79
2023/05/30 01:11:28;;;;;;;21.50;17.50;;;;;;;11.23;73.33;98046.83;106587;1277;25275;-81
2023/05/30 01:14:10;;;;;;;20.20;17.70;;;;;;;11.10;73.45;98046.41;106747;1277;22670;-81
2023/05/30 01:16:46;;;;;;;21.00;17.40;;;;;;;11.08;73.35;98048.17;106780;1277;23016;-79
2023/05/30 01:19:45;;;;;;;23.30;18.50;;;;;;;11.08;73.42;98045.30;106710;1277;22689;-79
2023/05/30 01:22:33;;;;;;;21.30;16.90;;;;;;;10.99;74.06;98044.73;106746;1277;23168;-80
2023/05/30 01:25:36;;;;;;;18.70;15.90;;;;;;;10.82;74.43;98043.73;106628;1277;25316;-79
2023/05/30 01:28:10;;;;;;;19.50;15.30;;;;;;;10.68;75.08;98046.40;106613;1277;22528;-80
2023/05/30 01:30:43;;;;;;;18.90;15.10;;;;;;;10.60;75.52;98050.56;106772;1277;24222;-81
2023/05/30 01:33:13;;;;;;;20.20;15.10;;;;;;;10.58;75.47;98044.73;106718;1277;24183;-81
2023/05/30 01:35:45;;;;;;;20.20;14.80;;;;;;;10.66;75.40;98045.73;106913;1277;24222;-81
2023/05/30 01:38:14;;;;;;;16.40;14.00;;;;;;;10.77;75.52;98045.60;106817;1277;22721;-79
2023/05/30 01:40:50;;;;;;;17.40;15.10;;;;;;;10.87;75.38;98038.25;106617;1277;22733;-79
2023/05/30 01:43:28;;;;;;;19.00;13.00;;;;;;;11.06;75.08;98043.63;106731;1277;22626;-83
2023/05/30 01:46:15;;;;;;;18.40;14.40;;;;;;;11.18;75.29;98041.73;106650;1277;22635;-80
2023/05/30 01:48:58;;;;;;;20.00;12.60;;;;;;;11.32;75.23;98037.11;106651;1277;22950;-83
2023/05/30 01:51:36;;;;;;;19.10;14.10;;;;;;;11.42;75.98;98038.80;106704;1277;25294;-80
2023/05/30 01:54:08;;;;;;;21.20;14.40;;;;;;;11.46;75.88;98033.25;106992;1277;22643;-80
2023/05/30 01:56:38;;;;;;;20.20;14.30;;;;;;;11.48;75.68;98035.82;107014;1277;25339;-82
2023/05/30 01:59:08;;;;;;;15.90;14.10;;;;;;;11.51;75.78;98033.50;106978;1277;24636;-81
2023/05/30 02:01:38;;;;;;;18.70;13.80;;;;;;;11.53;75.39;98035.92;107476;1277;22595;-81
2023/05/30 02:04:06;;;;;;;21.90;13.20;;;;;;;11.54;75.37;98033.84;106800;1277;24228;-81
2023/05/30 02:06:35;;;;;;;17.30;13.20;;;;;;;11.57;75.44;98033.25;106863;1277;25458;-81
2023/05/30 02:09:04;;;;;;;18.10;13.00;;;;;;;11.60;75.49;98034.16;106820;1277;22629;-80
2023/05/30 02:11:32;;;;;;;17.90;12.90;;;;;;;11.62;75.15;98029.81;106805;1277;22527;-81
2023/05/30 02:14:00;;;;;;;14.70;12.50;;;;;;;11.63;74.95;98030.42;106802;1277;22520;-79
2023/05/30 02:16:28;;;;;;;17.40;12.90;;;;;;;11.66;74.68;98032.42;106810;1277;22515;-81
2023/05/30 02:18:57;;;;;;;17.40;14.10;;;;;;;11.67;74.42;98030.13;106661;1277;24275;-79
2023/05/30 02:21:25;;;;;;;20.50;16.50;;;;;;;11.65;74.31;98027.65;106804;1277;22503;-80
2023/05/30 02:23:53;;;;;;;22.20;18.10;;;;;;;11.62;74.12;98027.70;106656;1277;22530;-80
2023/05/30 02:26:26;;;;;;;24.90;22.30;;;;;;;11.58;74.16;98027.42;106772;1277;22531;-79
2023/05/30 02:28:54;;;;;;;25.80;23.10;;;;;;;11.54;74.25;98029.59;106788;1277;22565;-80
2023/05/30 02:31:22;;;;;;;31.60;23.20;;;;;;;11.51;74.77;98029.27;106739;1277;22537;-79
2023/05/30 02:33:50;;;;;;;28.20;23.40;;;;;;;11.49;74.80;98030.77;106629;1277;22521;-80
2023/05/30 02:36:18;;;;;;;30.60;21.80;;;;;;;11.45;74.52;98031.94;106793;1277;22631;-80
2023/05/30 02:38:46;;;;;;;25.60;21.30;;;;;;;11.42;74.92;98032.23;106789;1277;22520;-80
2023/05/30 02:41:14;;;;;;;23.30;20.60;;;;;;;11.39;74.96;98034.10;106800;1277;22517;-80
2023/05/30 02:43:43;;;;;;;29.10;22.20;;;;;;;11.37;74.89;98036.20;106589;1277;22632;-80
2023/05/30 02:46:11;;;;;;;24.80;20.50;;;;;;;11.34;75.11;98041.54;106892;1277;22517;-80
2023/05/30 02:48:40;;;;;;;26.00;22.30;;;;;;;11.33;75.61;98045.34;106685;1277;25399;-80
2023/05/30 02:51:08;;;;;;;27.50;22.80;;;;;;;11.34;75.43;98043.58;106696;1277;23433;-79
2023/05/30 02:53:36;;;;;;;28.10;23.60;;;;;;;11.37;75.50;98042.39;106634;1277;22515;-80
2023/05/30 02:56:05;;;;;;;27.30;22.70;;;;;;;11.38;75.63;98039.04;106625;1267;23936;-81
2023/05/30 02:58:39;;;;;;;23.80;21.20;;;;;;;11.39;75.95;98039.78;106794;1277;23759;-79
2023/05/30 03:01:25;;;;;;;19.10;15.60;;;;;;;11.42;75.71;98034.21;106786;1277;22630;-79
2023/05/30 03:03:54;;;;;;;23.50;18.90;;;;;;;11.48;75.69;98041.91;106706;1271;22595;-79
2023/05/30 03:06:31;;;;;;;23.00;18.60;;;;;;;11.50;75.79;98043.96;106711;1277;22520;-79
2023/05/30 03:09:11;;;;;;;17.30;13.40;;;;;;;11.52;75.92;98047.16;106655;1277;22703;-79
2023/05/30 03:11:39;;;;;;;15.30;11.80;;;;;;;11.56;76.53;98049.91;106691;1277;22750;-79
2023/05/30 03:14:07;;;;;;;14.20;12.50;;;;;;;11.62;76.71;98051.71;106677;1277;22698;-81
2023/05/30 03:16:36;;;;;;;15.10;12.30;;;;;;;11.67;76.65;98055.83;106672;1277;22584;-81
2023/05/30 03:19:05;;;;;;;21.80;12.80;;;;;;;11.70;76.51;98057.91;106618;1277;24081;-79
2023/05/30 03:21:36;;;;;;;18.50;11.70;;;;;;;11.75;76.19;98063.28;106565;1277;22689;-78
2023/05/30 03:24:05;;;;;;;22.20;16.00;;;;;;;11.82;76.33;98070.20;106600;1277;25468;-79
2023/05/30 03:26:38;;;;;;;22.70;20.30;;;;;;;11.89;76.15;98071.55;106741;1277;22573;-79
2023/05/30 03:29:08;;;;;;;34.30;23.60;;;;;;;11.90;76.12;98078.48;106781;1277;25201;-81
2023/05/30 03:31:36;;;;;;;24.30;21.70;;;;;;;11.92;76.21;98083.30;106925;1277;22685;-79
2023/05/30 03:34:04;;;;;;;19.20;16.90;;;;;;;11.95;76.07;98077.67;106691;1277;24227;-79
2023/05/30 03:36:32;;;;;;;20.20;15.00;;;;;;;11.98;76.09;98077.07;106771;1277;25351;-79
2023/05/30 03:39:01;;;;;;;19.70;12.70;;;;;;;12.04;76.09;98077.80;106758;1277;23019;-80
2023/05/30 03:41:29;;;;;;;16.70;12.50;;;;;;;12.13;76.17;98078.27;106652;1277;22526;-79
2023/05/30 03:43:57;;;;;;;14.70;11.70;;;;;;;12.20;76.11;98081.93;106776;1277;23029;-80
2023/05/30 03:46:26;;;;;;;17.80;13.10;;;;;;;12.25;76.07;98079.60;106697;1277;22543;-80
2023/05/30 03:48:55;;;;;;;18.00;11.80;;;;;;;12.30;76.08;98081.88;106858;1266;22543;-79
2023/05/30 03:51:23;;;;;;;17.30;13.20;;;;;;;12.34;75.80;98080.83;106787;1277;22633;-81
2023/05/30 03:53:51;;;;;;;17.30;14.10;;;;;;;12.36;75.83;98080.61;106569;1277;22526;-80
2023/05/30 03:56:20;;;;;;;23.50;15.10;;;;;;;12.40;75.98;98079.83;106640;1277;24250;-79
2023/05/30 03:58:48;;;;;;;27.20;15.70;;;;;;;12.45;75.96;98081.04;106857;1277;25390;-86
2023/05/30 04:01:17;;;;;;;27.80;20.00;;;;;;;12.51;75.91;98085.06;106517;1277;22532;-83
2023/05/30 04:03:45;;;;;;;24.30;21.20;;;;;;;12.59;76.38;98083.63;106595;1277;22527;-82
2023/05/30 04:06:14;;;;;;;24.30;21.90;;;;;;;12.65;76.32;98088.46;107183;1277;22637;-81
2023/05/30 04:08:43;;;;;;;24.60;21.70;;;;;;;12.66;76.17;98086.22;106742;1277;22540;-81
2023/05/30 04:11:11;;;;;;;27.50;19.70;;;;;;;12.68;76.09;98090.02;106964;1277;25493;-82
2023/05/30 04:13:39;;;;;;;25.20;19.70;;;;;;;12.70;75.93;98091.78;106826;1277;26388;-81
2023/05/30 04:16:07;;;;;;;24.50;19.80;;;;;;;12.73;75.94;98096.27;106871;1277;25313;-81
2023/05/30 04:18:43;;;;;;;24.90;21.60;;;;;;;12.77;75.91;98098.73;106695;1277;22651;-82
2023/05/30 04:21:12;;;;;;;26.50;20.60;;;;;;;12.79;75.87;98095.84;107011;1277;22826;-82
2023/05/30 04:23:42;;;;;;;24.60;18.90;;;;;;;12.84;75.93;98096.93;106966;1277;22529;-81
2023/05/30 04:26:10;;;;;;;25.30;19.50;;;;;;;12.93;75.97;98099.25;106868;1277;23248;-85
2023/05/30 04:28:39;;;;;;;27.80;19.50;;;;;;;13.02;75.82;98100.16;106815;1277;24442;-86
2023/05/30 04:31:08;;;;;;;28.90;20.50;;;;;;;13.11;75.97;98104.80;107132;1277;24263;-82
2023/05/30 04:33:50;;;;;;;21.60;17.50;;;;;;;13.18;75.94;98105.46;107334;1277;22549;-82
2023/05/30 04:36:19;;;;;;;26.10;19.40;;;;;;;13.23;76.12;98107.73;106893;1277;22513;-81
2023/05/30 04:38:52;;;;;;;28.70;21.50;;;;;;;13.26;76.05;98110.65;107099;1277;24545;-81
2023/05/30 04:41:24;;;;;;;41.80;31.70;;;;;;;13.28;75.96;98113.70;106820;1277;24389;-80
2023/05/30 04:43:57;;;;;;;30.10;26.30;;;;;;;13.33;76.09;98115.56;106831;1277;25323;-79
2023/05/30 04:46:27;;;;;;;27.70;21.40;;;;;;;13.37;76.00;98108.08;106830;1255;22531;-81
2023/05/30 04:49:00;;;;;;;30.60;20.80;;;;;;;13.38;76.27;98110.75;106780;1277;25343;-79
2023/05/30 04:51:32;;;;;;;27.60;17.80;;;;;;;13.44;76.22;98109.70;107062;1277;25710;-79
2023/05/30 04:54:02;;;;;;;28.60;18.40;;;;;;;13.48;76.13;98109.21;106852;1277;22751;-78
2023/05/30 04:56:30;;;;;;;24.60;17.90;;;;;;;13.53;76.31;98109.77;106814;1277;24324;-78
2023/05/30 04:58:58;;;;;;;23.30;18.10;;;;;;;13.59;76.29;98112.30;106933;1277;26704;-78
2023/05/30 05:01:26;;;;;;;23.60;17.10;;;;;;;13.67;76.08;98112.43;106990;1277;25417;-79
2023/05/30 05:03:54;;;;;;;19.50;16.40;;;;;;;13.76;75.87;98109.37;106869;1277;22969;-78
2023/05/30 05:06:23;;;;;;;24.10;17.30;;;;;;;13.82;75.83;98109.45;107000;1277;25221;-79
2023/05/30 05:08:51;;;;;;;24.00;15.30;;;;;;;13.90;75.82;98107.66;106837;1277;24217;-79
2023/05/30 05:11:21;;;;;;;20.70;16.00;;;;;;;14.02;75.90;98109.31;106878;1277;22682;-80
2023/05/30 05:13:49;;;;;;;19.40;14.50;;;;;;;14.16;75.72;98107.98;107049;1277;22649;-83
2023/05/30 05:16:17;;;;;;;17.50;13.60;;;;;;;14.28;75.67;98113.10;106952;1277;22532;-80
2023/05/30 05:18:45;;;;;;;17.00;14.00;;;;;;;14.39;75.65;98117.20;107131;1277;22644;-79
2023/05/30 05:21:14;;;;;;;15.50;12.20;;;;;;;14.47;75.46;98120.88;107049;1277;22522;-79
2023/05/30 05:23:42;;;;;;;19.30;13.90;;;;;;;14.52;75.09;98128.20;107074;1277;24195;-79
2023/05/30 05:26:10;;;;;;;25.90;15.90;;;;;;;14.53;74.28;98139.89;106994;1277;22588;-79
2023/05/30 05:28:38;;;;;;;23.30;17.30;;;;;;;14.44;73.84;98156.00;107077;1277;24340;-82
2023/05/30 05:31:06;;;;;;;22.80;16.90;;;;;;;14.32;73.99;98156.07;106987;1277;25469;-81
2023/05/30 05:33:34;;;;;;;19.20;15.40;;;;;;;14.27;74.45;98151.41;107035;1277;24193;-79
2023/05/30 05:36:02;;;;;;;22.00;14.10;;;;;;;14.33;74.72;98153.99;107121;1277;25383;-79
2023/05/30 05:38:30;;;;;;;17.30;12.80;;;;;;;14.36;74.68;98164.23;107094;1277;22524;-81
2023/05/30 05:40:58;;;;;;;21.60;13.30;;;;;;;14.38;74.71;98161.69;106977;1277;25325;-79
2023/05/30 05:43:27;;;;;;;21.50;12.80;;;;;;;14.41;74.42;98164.59;106988;1277;22738;-79
2023/05/30 05:45:55;;;;;;;16.80;12.40;;;;;;;14.45;74.21;98170.36;107032;1277;23409;-79
2023/05/30 05:48:23;;;;;;;18.40;12.70;;;;;;;14.48;74.48;98176.77;107027;1277;22524;-79
2023/05/30 05:50:51;;;;;;;14.90;11.60;;;;;;;14.53;74.62;98180.69;106616;1277;194241;-79
2023/05/30 05:53:20;;;;;;;18.60;13.40;;;;;;;14.58;74.79;98179.36;106966;1277;24173;-79
2023/05/30 05:55:48;;;;;;;21.70;13.40;;;;;;;14.59;75.42;98180.73;107111;1277;23159;-79
2023/05/30 05:58:16;;;;;;;23.60;14.70;;;;;;;14.60;75.43;98181.29;107004;1277;24343;-79
2023/05/30 06:00:44;;;;;;;20.90;14.60;;;;;;;14.58;74.93;98181.30;106787;1277;22634;-80
2023/05/30 06:03:12;;;;;;;18.70;13.70;;;;;;;14.57;75.08;98179.91;106826;1263;22543;-80
2023/05/30 06:05:40;;;;;;;19.60;12.80;;;;;;;14.67;75.29;98179.55;106627;1277;22575;-79
2023/05/30 06:08:08;;;;;;;21.50;13.30;;;;;;;14.87;75.22;98180.29;106831;1276;22623;-80
2023/05/30 06:10:36;;;;;;;21.20;13.30;;;;;;;15.05;75.31;98186.94;106769;1278;24361;-80
2023/05/30 06:13:04;;;;;;;17.60;13.10;;;;;;;15.16;75.28;98182.95;106994;1278;24250;-79
2023/05/30 06:15:32;;;;;;;20.50;12.20;;;;;;;15.33;75.11;98186.62;106669;1278;25343;-80
2023/05/30 06:18:00;;;;;;;19.30;12.20;;;;;;;15.51;74.64;98188.69;106563;1278;22639;-81
2023/05/30 06:20:29;;;;;;;19.90;13.90;;;;;;;15.72;74.44;98191.06;106610;1278;23012;-82
2023/05/30 06:22:57;;;;;;;17.60;13.00;;;;;;;15.93;73.99;98192.30;106629;1277;22627;-81
2023/05/30 06:25:30;;;;;;;18.70;12.00;;;;;;;16.18;73.97;98194.29;106756;1278;23756;-80
2023/05/30 06:27:58;;;;;;;16.00;12.00;;;;;;;16.41;73.33;98197.02;106894;1278;22509;-80
2023/05/30 06:30:26;;;;;;;16.60;12.10;;;;;;;16.56;73.12;98199.14;107044;1269;25241;-83
2023/05/30 06:32:54;;;;;;;21.20;13.10;;;;;;;16.71;72.56;98198.36;107379;1263;22586;-80
2023/05/30 06:35:22;;;;;;;17.80;13.10;;;;;;;16.90;72.63;98196.08;106826;1277;22525;-82
2023/05/30 06:37:50;;;;;;;19.40;12.40;;;;;;;17.00;72.10;98200.80;106665;1277;22617;-82
2023/05/30 06:40:18;;;;;;;19.20;12.00;;;;;;;17.10;71.74;98206.90;106820;1263;22640;-79
2023/05/30 06:42:46;;;;;;;17.30;12.50;;;;;;;17.08;70.53;98207.78;106764;1277;22629;-79
2023/05/30 06:45:14;;;;;;;18.20;12.70;;;;;;;17.11;70.34;98208.97;107156;1273;23902;-79
2023/05/30 06:47:44;;;;;;;21.10;13.50;;;;;;;17.08;70.36;98212.68;106678;1277;22524;-80
2023/05/30 06:50:12;;;;;;;20.30;14.30;;;;;;;17.05;69.97;98211.39;106678;1278;22516;-80
2023/05/30 06:52:40;;;;;;;18.20;11.80;;;;;;;17.01;69.05;98214.21;106781;1256;22647;-81
2023/05/30 06:55:08;;;;;;;21.40;11.80;;;;;;;17.02;69.24;98213.70;106955;1278;22641;-79
2023/05/30 06:57:36;;;;;;;23.40;12.40;;;;;;;17.07;68.12;98211.38;106913;1278;25567;-79
2023/05/30 07:00:06;;;;;;;20.50;12.60;;;;;;;17.09;68.75;98215.11;106773;1278;25249;-81
2023/05/30 07:02:34;;;;;;;18.50;11.40;;;;;;;17.14;68.22;98216.15;106576;1278;22482;-81
2023/05/30 07:05:02;;;;;;;18.30;10.80;;;;;;;17.11;67.62;98220.86;106977;1278;24248;-80
2023/05/30 07:07:30;;;;;;;14.50;10.40;;;;;;;17.13;67.48;98219.77;106932;1278;22548;-79
2023/05/30 07:09:58;;;;;;;17.50;9.40;;;;;;;17.22;67.97;98216.75;106630;1277;24378;-80
2023/05/30 07:12:26;;;;;;;16.90;9.30;;;;;;;17.32;66.65;98217.71;106688;1277;22607;-80
2023/05/30 07:14:54;;;;;;;17.00;10.00;;;;;;;17.28;65.64;98219.61;107088;1275;22554;-80
2023/05/30 07:17:22;;;;;;;20.70;10.90;;;;;;;17.30;65.30;98224.57;107094;1277;25277;-80
2023/05/30 07:19:50;;;;;;;19.50;11.30;;;;;;;17.31;65.70;98225.87;106894;1277;25517;-79
2023/05/30 07:22:18;;;;;;;16.50;10.30;;;;;;;17.35;65.98;98229.73;106656;1278;25803;-78
2023/05/30 07:24:46;;;;;;;18.70;10.30;;;;;;;17.44;66.09;98228.66;106615;1278;22654;-79
2023/05/30 07:27:15;;;;;;;20.40;11.10;;;;;;;17.55;65.86;98228.64;106743;1277;22555;-78
2023/05/30 07:29:43;;;;;;;19.60;10.10;;;;;;;17.63;66.13;98230.48;106749;1277;22627;-79
2023/05/30 07:32:12;;;;;;;18.20;10.40;;;;;;;17.70;65.07;98228.86;106786;1277;22638;-80
2023/05/30 07:34:41;;;;;;;24.40;9.00;;;;;;;17.77;65.19;98226.30;107262;1277;22545;-80
2023/05/30 07:37:09;;;;;;;12.80;7.90;;;;;;;17.89;64.76;98225.00;106689;1277;22573;-80
2023/05/30 07:39:38;;;;;;;15.60;8.10;;;;;;;17.93;62.31;98222.64;106843;1277;22523;-80
2023/05/30 07:42:07;;;;;;;17.30;8.10;;;;;;;17.95;62.49;98222.71;107129;1277;25314;-81
2023/05/30 07:44:35;;;;;;;12.60;8.10;;;;;;;18.11;63.92;98222.77;107220;1271;22636;-81
2023/05/30 07:47:03;;;;;;;14.50;9.20;;;;;;;18.30;62.81;98224.84;107196;1278;23981;-80
2023/05/30 07:49:31;;;;;;;14.10;8.80;;;;;;;18.33;62.88;98229.64;107268;1277;23303;-81
2023/05/30 07:51:59;;;;;;;13.30;7.70;;;;;;;18.28;61.02;98226.89;107238;1277;22560;-81
2023/05/30 07:54:27;;;;;;;11.80;7.30;;;;;;;18.24;61.68;98226.98;107116;1277;22552;-80
2023/05/30 07:56:56;;;;;;;12.90;7.60;;;;;;;18.32;62.03;98229.11;107034;1277;24344;-81
2023/05/30 07:59:24;;;;;;;18.10;7.90;;;;;;;18.47;61.74;98227.08;107278;1277;22575;-81
2023/05/30 08:01:52;;;;;;;15.00;7.00;;;;;;;18.61;60.99;98230.96;107154;1277;22591;-81
2023/05/30 08:04:20;;;;;;;13.50;6.70;;;;;;;18.65;60.12;98228.89;107165;1277;22529;-81
2023/05/30 08:06:48;;;;;;;14.90;7.00;;;;;;;18.69;60.81;98233.23;107203;1277;25191;-79
2023/05/30 08:09:16;;;;;;;10.40;5.80;;;;;;;18.79;60.96;98229.73;107161;1277;22587;-78
2023/05/30 08:11:44;;;;;;;16.20;6.90;;;;;;;18.91;61.09;98229.14;107098;1277;22639;-79
2023/05/30 08:14:12;;;;;;;14.70;6.60;;;;;;;18.98;60.12;98228.02;107085;1277;23306;-80
2023/05/30 08:16:40;;;;;;;15.30;7.30;;;;;;;18.99;58.79;98231.34;107165;1277;22652;-80
2023/05/30 08:19:08;;;;;;;17.70;7.80;;;;;;;18.95;58.69;98228.16;107132;1277;22554;-80
2023/05/30 08:21:36;;;;;;;16.10;8.40;;;;;;;19.04;58.22;98224.77;107029;1277;22528;-80
2023/05/30 08:24:05;;;;;;;15.00;7.50;;;;;;;19.18;58.45;98222.35;107071;1277;25366;-80
2023/05/30 08:26:34;;;;;;;12.20;6.70;;;;;;;19.32;56.36;98221.89;107192;1277;22528;-80
2023/05/30 08:29:03;;;;;;;13.80;7.30;;;;;;;19.33;56.80;98221.60;107006;1277;22553;-80
2023/05/30 08:31:31;;;;;;;15.60;7.30;;;;;;;19.57;57.89;98216.52;107171;1277;25377;-80
2023/05/30 08:34:04;;;;;;;12.60;6.90;;;;;;;19.80;55.35;98222.93;107111;1277;25327;-80
2023/05/30 08:36:32;;;;;;;13.70;6.00;;;;;;;19.93;55.05;98220.00;107029;1277;24183;-80
2023/05/30 08:39:01;;;;;;;10.60;5.20;;;;;;;20.08;55.05;98219.28;107092;1256;24242;-80
2023/05/30 08:41:32;;;;;;;9.50;5.50;;;;;;;20.33;54.68;98220.48;107044;1277;22813;-80
2023/05/30 08:44:00;;;;;;;10.90;5.40;;;;;;;20.45;50.54;98221.69;107042;1277;24199;-80
2023/05/30 08:46:28;;;;;;;13.50;5.90;;;;;;;20.31;50.75;98222.40;107090;1276;23914;-80
2023/05/30 08:48:57;;;;;;;11.00;4.40;;;;;;;20.38;51.94;98220.91;106889;1278;22528;-80
2023/05/30 08:51:29;;;;;;;9.20;4.80;;;;;;;20.55;48.65;98222.19;107021;1277;24373;-80
2023/05/30 08:54:02;;;;;;;9.60;4.80;;;;;;;20.54;45.82;98220.84;107051;1278;24397;-80
2023/05/30 08:56:39;;;;;;;9.20;4.70;;;;;;;20.53;46.56;98221.58;107219;1276;25242;-80
2023/05/30 08:59:09;;;;;;;8.90;5.40;;;;;;;20.66;47.13;98221.91;107079;1277;25265;-80
2023/05/30 09:01:38;;;;;;;9.70;5.10;;;;;;;20.83;47.10;98219.77;107357;1277;23347;-80
2023/05/30 09:04:09;;;;;;;9.60;4.70;;;;;;;21.17;47.86;98217.64;107019;1277;25466;-80
2023/05/30 09:06:39;;;;;;;12.30;5.40;;;;;;;21.40;46.84;98221.80;107037;1278;22651;-79
2023/05/30 09:09:10;;;;;;;11.30;5.00;;;;;;;21.28;47.11;98221.40;107066;1278;23030;-80
2023/05/30 09:11:39;;;;;;;7.70;4.60;;;;;;;21.18;46.78;98228.70;107026;1270;24091;-80
2023/05/30 09:14:08;;;;;;;11.20;4.50;;;;;;;20.93;45.64;98231.79;107081;1278;24248;-82
2023/05/30 09:16:36;;;;;;;11.40;4.40;;;;;;;20.65;45.10;98230.41;107304;1270;22726;-81
2023/05/30 09:19:04;;;;;;;8.80;4.90;;;;;;;20.43;45.96;98227.52;107141;1278;24066;-79
2023/05/30 09:21:33;;;;;;;12.50;5.10;;;;;;;20.39;46.09;98222.13;107006;1278;22648;-79
2023/05/30 09:24:05;;;;;;;9.30;4.50;;;;;;;20.40;45.97;98219.55;106948;1278;25294;-80
2023/05/30 09:26:33;;;;;;;14.20;5.60;;;;;;;20.54;45.43;98220.20;107083;1276;25448;-79
2023/05/30 09:29:09;;;;;;;7.40;5.00;;;;;;;20.65;44.26;98219.52;107189;1277;22541;-79
2023/05/30 09:31:38;;;;;;;9.70;4.60;;;;;;;20.68;43.44;98219.35;107182;1276;22521;-79
2023/05/30 09:34:06;;;;;;;6.20;4.10;;;;;;;20.85;44.20;98216.51;107187;1277;22914;-79
2023/05/30 09:36:35;;;;;;;8.30;4.80;;;;;;;21.00;43.11;98222.71;107037;1277;22560;-79
2023/05/30 09:39:06;;;;;;;10.10;4.20;;;;;;;21.24;44.99;98218.73;107068;1277;22535;-79
2023/05/30 09:41:35;;;;;;;7.20;4.20;;;;;;;21.65;44.32;98212.56;107025;1259;23030;-79
2023/05/30 09:44:10;;;;;;;7.60;4.50;;;;;;;21.91;42.89;98214.66;106975;1277;22537;-79
2023/05/30 09:46:38;;;;;;;10.30;4.60;;;;;;;22.04;41.40;98216.12;106891;1277;22846;-80
2023/05/30 09:49:12;;;;;;;6.30;4.20;;;;;;;21.87;42.05;98211.54;107066;1277;22550;-79
2023/05/30 09:51:41;;;;;;;8.20;4.20;;;;;;;21.73;41.41;98223.36;107056;1277;25354;-79
2023/05/30 09:54:09;;;;;;;8.50;4.10;;;;;;;21.70;41.45;98223.55;107024;1277;22560;-80
2023/05/30 09:56:39;;;;;;;9.50;4.70;;;;;;;21.59;41.66;98223.42;107047;1277;22534;-79
2023/05/30 09:59:09;;;;;;;8.70;4.10;;;;;;;21.61;42.60;98227.29;107016;1277;22612;-80
2023/05/30 10:01:47;;;;;;;7.70;4.10;;;;;;;21.58;42.41;98225.98;107068;1273;22730;-79
2023/05/30 10:04:17;;;;;;;6.40;4.20;;;;;;;21.56;42.44;98229.55;107111;1277;23216;-79
2023/05/30 10:06:51;;;;;;;8.60;4.40;;;;;;;21.45;41.90;98229.11;106992;1277;22565;-79
2023/05/30 10:09:24;;;;;;;8.00;4.60;;;;;;;21.04;42.11;98231.63;107046;1266;22520;-80
2023/05/30 10:11:52;;;;;;;8.10;4.30;;;;;;;20.93;42.66;98226.31;107068;1264;25322;-80
2023/05/30 10:14:20;;;;;;;8.90;4.30;;;;;;;20.96;43.53;98225.89;107083;1277;22528;-80
2023/05/30 10:17:03;;;;;;;12.20;4.30;;;;;;;21.30;43.23;98228.08;107126;1277;23893;-81
2023/05/30 10:19:56;;;;;;;11.10;4.80;;;;;;;21.51;41.71;98226.61;107141;1277;25371;-81
2023/05/30 10:22:28;;;;;;;10.90;4.30;;;;;;;21.62;41.42;98229.52;107096;1264;25571;-79
2023/05/30 10:24:59;;;;;;;12.30;5.10;;;;;;;21.76;41.37;98226.16;107044;1277;22628;-78
2023/05/30 10:27:32;;;;;;;9.40;4.20;;;;;;;21.89;41.04;98224.64;107056;1277;22583;-79
2023/05/30 10:30:08;;;;;;;7.50;4.50;;;;;;;21.95;41.00;98224.77;107075;1277;24246;-80
2023/05/30 10:32:38;;;;;;;10.80;5.10;;;;;;;22.15;41.24;98222.52;106983;1277;22673;-79
2023/05/30 10:35:26;;;;;;;7.30;4.60;;;;;;;22.53;41.54;98223.19;107146;1278;24247;-79
2023/05/30 10:37:55;;;;;;;8.30;4.80;;;;;;;22.37;38.66;98226.01;107177;1277;22664;-80
2023/05/30 10:40:48;;;;;;;9.20;4.50;;;;;;;21.92;39.26;98223.69;107051;1277;24250;-80
2023/05/30 10:43:38;;;;;;;8.90;4.50;;;;;;;21.55;39.28;98221.77;107135;1277;22938;-80
2023/05/30 10:46:15;;;;;;;8.90;5.00;;;;;;;21.39;40.44;98221.30;107013;1277;23314;-80
2023/05/30 10:48:47;;;;;;;8.00;4.80;;;;;;;21.26;41.00;98223.61;107079;1277;24235;-80
2023/05/30 10:51:15;;;;;;;13.20;5.10;;;;;;;21.13;41.33;98222.58;107105;1277;23332;-80
2023/05/30 10:53:45;;;;;;;10.20;5.90;;;;;;;20.96;41.72;98221.98;107060;1277;22593;-80
2023/05/30 10:56:26;;;;;;;8.00;4.80;;;;;;;20.90;42.21;98221.95;107070;1277;25340;-79
2023/05/30 10:58:55;;;;;;;7.70;4.60;;;;;;;20.97;42.43;98222.48;107113;1277;22583;-80
2023/05/30 11:01:30;;;;;;;8.80;4.30;;;;;;;20.98;42.60;98224.46;107157;1270;24222;-80
2023/05/30 11:03:58;;;;;;;9.70;5.00;;;;;;;21.00;42.22;98222.52;107003;1277;25353;-81
2023/05/30 11:06:28;;;;;;;8.40;5.70;;;;;;;20.98;41.76;98223.36;107157;1277;22523;-81
2023/05/30 11:09:16;;;;;;;7.30;4.90;;;;;;;20.96;42.19;98226.30;107074;1277;22658;-80
2023/05/30 11:11:46;;;;;;;7.20;4.60;;;;;;;21.10;42.50;98222.59;107272;1273;25454;-80
2023/05/30 11:14:15;;;;;;;8.70;4.80;;;;;;;21.27;42.95;98219.64;107430;1277;22528;-80
2023/05/30 11:17:01;;;;;;;9.70;5.40;;;;;;;21.51;42.76;98220.45;107534;1267;24088;-80
2023/05/30 11:19:45;;;;;;;28.40;5.80;;;;;;;21.92;42.97;98216.17;107312;1270;24260;-80
2023/05/30 11:22:13;;;;;;;9.00;4.90;;;;;;;22.36;43.05;98213.92;107231;1277;22632;-81
2023/05/30 11:24:43;;;;;;;26.30;6.50;;;;;;;22.54;42.20;98217.33;107003;1264;22527;-81
2023/05/30 11:27:14;;;;;;;9.00;4.90;;;;;;;22.60;41.97;98217.33;107098;1277;24416;-81
2023/05/30 11:29:51;;;;;;;7.40;4.30;;;;;;;22.78;41.61;98218.84;107069;1264;22564;-81